Weather observations for the past three days for
COLUMBIA
Metric (Imperial)
Date Time (pdt) Wind (kph) Vis. (km) Weather Sky Cond. Temperature (ºC) Relative Humidity Wind Chill (°C) Heat Index (°C) Pressure Precipitation (cm)
Air Dwpt 6 hour altimeter (cm) sea level (mb) 1 hr 3 hr 6 hr
Max. Min.
01 21:15 W 11 16.09 Mostly Cloudy BKN042 BKN050 16 8 59% 76.33 0.0
01 20:55 Vrbl 9 16.09 Partly Cloudy SCT044 SCT050 16 7 55% 76.28 0.0
01 20:35 Calm 16.09 A Few Clouds FEW041 FEW048 17 7 52% 76.28 0.0
01 20:15 W 6 16.09 Fair CLR 17 6 49% 76.25 0.0
01 19:35 SW 9 16.09 Fair CLR 19 5 40% 76.2 0.0
01 19:15 SW 9 16.09 Fair CLR 20 5 38% 76.17 0.0
01 18:15 S 9 16.09 Fair CLR 21 6 38% 76.17 0.0
01 17:35 SW 9 16.09 Fair CLR 22 6 36% 76.17 0.0
01 17:15 SW 11 16.09 Fair CLR 22 6 36% 76.17 0.0
01 16:35 SW 15 16.09 Fair CLR 21 6 38% 76.2 0.0
01 16:15 SW 13 G 22 16.09 Fair CLR 22 6 36% 76.2 0.0
01 15:55 SW 11 G 22 16.09 Fair CLR 23 6 33% 76.2 0.0
01 15:35 Vrbl 11 16.09 Fair CLR 23 6 33% 76.2 0.0
01 15:15 Vrbl 9 G 19 16.09 Fair CLR 22 5 33% 76.2 0.0
01 12:55 Vrbl 11 G 24 16.09 Fair CLR 23 5 31% 76.25 0.0
01 12:15 Vrbl 6 16.09 Fair CLR 22 8 41% 76.25 0.0
01 11:55 Calm 16.09 Fair CLR 20 8 46% 76.28 0.0
01 11:35 Vrbl 7 16.09 Fair CLR 20 9 49% 76.28 0.0
01 10:55 Vrbl 9 16.09 Fair CLR 18 9 56% 76.3 0.0
01 10:35 W 9 16.09 Fair CLR 17 9 60% 76.28 0.0
01 10:15 Vrbl 7 16.09 Fair CLR 16 9 63% 76.28 0.0
01 09:35 W 11 16.09 Fair CLR 15 9 68% 76.28 0.0
01 08:55 Calm 16.09 Fair CLR 14 9 72% 76.23 0.0
01 08:35 Calm 16.09 Fair CLR 13 10 82% 76.23 0.0
01 08:15 Calm 16.09 Fair CLR 12 9 82% 76.2 0.0
01 07:35 Calm 16.09 Fair CLR 11 10 94% 76.17 0.0
01 07:15 Calm 16.09 Fair CLR 11 9 88% 76.17 0.0
01 06:55 Calm 16.09 Fair CLR 10 9 94% 76.15 0.0
01 06:35 Calm 16.09 A Few Clouds FEW047 FEW060 11 9 88% 76.15 0.0
01 06:15 Vrbl 9 16.09 Mostly Cloudy BKN046 BKN060 11 9 88% 76.15 0.0
01 05:55 Calm 16.09 Mostly Cloudy SCT047 BKN060 11 9 88% 76.15 0.0
01 05:35 W 9 G 20 16.09 A Few Clouds FEW048 11 10 94% 76.12 0.0
01 05:15 Calm 16.09 Mostly Cloudy SCT043 BKN048 11 9 88% 76.1 0.0
01 04:55 Calm 16.09 Mostly Cloudy BKN044 BKN070 11 9 88% 76.07 0.0
01 04:35 W 6 16.09 Partly Cloudy SCT044 SCT050 SCT070 11 9 88% 76.05 0.0
01 03:55 Calm 16.09 A Few Clouds FEW045 12 8 77% 76.02 0.0
01 03:35 Calm 16.09 A Few Clouds FEW047 11 9 88% 76.02 0.0
01 03:15 Calm 16.09 Fair CLR 12 8 77% 76.02 0.0
01 02:55 Calm 16.09 Partly Cloudy SCT048 SCT055 12 9 82% 76.05 0.0
01 02:35 Calm 16.09 Mostly Cloudy BKN049 12 9 82% 76.02 0.0
01 02:15 Calm 16.09 Partly Cloudy SCT042 SCT049 13 9 77% 76.05 0.0
01 01:55 Calm 16.09 Overcast SCT035 OVC042 13 9 77% 76.05 0.0
01 01:35 Calm 16.09 Overcast OVC042 13 10 82% 76.07 0.0
01 01:15 Calm 16.09 Mostly Cloudy FEW034 BKN043 13 10 82% 76.1 0.0
01 00:55 Calm 16.09 Mostly Cloudy BKN043 BKN048 14 10 77% 76.07 0.0
01 00:35 Calm 16.09 Overcast BKN044 OVC049 14 10 77% 76.07 0.0
31 23:55 Calm 16.09 Partly Cloudy SCT045 15 9 68% 76.07 0.0
31 23:35 Calm 16.09 Mostly Cloudy FEW034 BKN043 14 7 63% 76.05 0.0
31 23:15 Calm 16.09 Partly Cloudy SCT042 15 8 63% 76.05 0.0
31 22:55 Calm 16.09 Fair CLR 15 8 63% 76.02 0.0
31 22:15 Calm 16.09 Fair CLR 16 7 55% 76.05 0.0
31 21:55 Calm 16.09 A Few Clouds FEW050 16 6 52% 76.02 0.0
31 21:35 Calm 16.09 Partly Cloudy FEW045 SCT050 17 7 52% 76.02 0.0
31 21:15 Calm 16.09 A Few Clouds FEW044 FEW050 18 7 49% 76.02 0.0
31 20:35 Calm 16.09 Fair CLR 19 7 46% 76 0.0
31 19:35 Calm 16.09 Fair CLR 23 7 36% 75.97 0.0
31 18:35 SW 6 16.09 Fair CLR 25 5 28% 25 75.95 0.0
31 18:15 SW 9 16.09 Fair CLR 25 5 28% 25 75.97 0.0
31 17:35 SW 13 16.09 Fair CLR 27 6 26% 26 75.95 0.0
31 17:15 S 7 16.09 Fair CLR 27 6 26% 26 75.97 0.0
31 16:55 SW 13 16.09 Fair CLR 27 6 26% 26 75.97 0.0
31 16:35 SW 13 G 22 16.09 Fair CLR 27 6 26% 26 75.97 0.0
31 16:15 Calm 16.09 Fair CLR 27 4 23% 26 75.97 0.0
31 15:55 S 7 16.09 Fair CLR 28 4 21% 27 75.97 0.0
31 15:15 S 7 16.09 Fair CLR 28 4 21% 27 76.02 0.0
31 14:35 Vrbl 9 G 19 16.09 Fair CLR 28 5 23% 27 76.02 0.0
31 14:15 S 9 16.09 Fair CLR 28 6 25% 27 76.02 0.0
31 13:55 S 11 16.09 Fair CLR 27 7 28% 26 76.05 0.0
31 13:35 S 11 G 20 16.09 Fair CLR 27 7 28% 26 76.05 0.0
31 12:55 S 13 G 22 16.09 Fair CLR 27 8 30% 26 76.05 0.0
31 12:15 S 15 16.09 Fair CLR 28 7 26% 27 76.05 0.0
31 11:35 S 7 16.09 Fair CLR 27 7 28% 26 76.05 0.0
31 10:55 S 7 16.09 Fair CLR 26 8 32% 26 76.05 0.0
31 09:55 S 7 16.09 Fair CLR 25 8 34% 26 76.02 0.0
31 09:35 S 7 16.09 Fair CLR 25 7 32% 25 76.02 0.0
31 06:35 Calm 16.09 Partly Cloudy FEW046 SCT050 14 8 67% 75.97 0.0
31 06:15 Calm 16.09 Overcast FEW034 BKN046 OVC055 13 8 72% 75.97 0.0
31 05:35 Calm 16.09 Overcast BKN039 OVC046 13 8 72% 75.97 0.0
31 05:15 Calm 16.09 Overcast SCT032 BKN041 OVC047 14 8 67% 75.97 0.0
31 04:55 Calm 16.09 Overcast BKN032 OVC042 14 8 67% 75.97 0.0
31 04:35 Calm 16.09 Overcast BKN033 OVC043 13 8 72% 75.97 0.0
31 03:55 Calm 16.09 Overcast FEW033 BKN042 OVC047 14 8 67% 75.97 0.0
31 02:55 Calm 16.09 Overcast OVC070 14 7 63% 75.97 0.0
31 00:35 Calm 16.09 Overcast OVC050 15 7 59% 76 0.0
30 23:55 Calm 16.09 Overcast FEW037 SCT043 OVC050 16 7 55% 76 0.0
30 23:35 Calm 16.09 Overcast FEW041 OVC055 16 7 55% 76 0.0
30 23:15 Calm 16.09 Overcast BKN042 OVC050 16 7 55% 76 0.0
30 22:35 Calm 16.09 Overcast OVC050 17 7 52% 76.02 0.0
30 20:55 Calm 16.09 Overcast OVC055 20 7 43% 76 0.0
30 20:35 Calm 16.09 Overcast OVC055 21 8 43% 76 0.0
30 20:15 Calm 16.09 Overcast OVC055 22 8 41% 75.97 0.0
30 19:55 NE 6 16.09 Mostly Cloudy BKN055 23 8 38% 75.97 0.0
30 19:35 Calm 16.09 Fair CLR 24 8 36% 25 75.97 0.0
30 19:15 Calm 16.09 Fair CLR 26 6 28% 26 75.97 0.0
30 18:55 Calm 16.09 Fair CLR 27 6 26% 26 75.97 0.0
30 18:15 SW 7 16.09 Fair CLR 28 6 25% 27 75.97 0.0
30 17:55 S 7 16.09 Fair CLR 29 6 23% 28 75.97 0.0
30 17:35 S 11 16.09 Fair CLR 29 6 23% 28 75.97 0.0
30 17:15 Calm 16.09 Fair CLR 29 7 25% 28 76 0.0
30 16:55 S 7 16.09 Fair CLR 30 7 24% 28 76 0.0
30 16:35 SW 9 G 20 16.09 Fair CLR 29 6 23% 28 76 0.0
30 15:55 W 11 16.09 Fair CLR 30 7 24% 28 76.02 0.0
30 15:35 SW 7 16.09 Fair CLR 30 6 22% 28 76.02 0.0
30 15:15 Vrbl 11 16.09 Fair CLR 31 6 21% 29 76.05 0.0
30 14:55 S 6 16.09 Fair CLR 30 6 22% 28 76.07 0.0
30 14:35 S 11 G 20 16.09 Fair CLR 30 6 22% 28 76.07 0.0
30 14:15 S 13 16.09 Fair CLR 29 6 23% 28 76.1 0.0
30 13:35 S 13 16.09 Fair CLR 30 7 24% 28 76.1 0.0
30 13:15 S 11 G 22 16.09 Fair CLR 30 6 22% 28 76.1 0.0
30 12:55 S 13 16.09 Fair CLR 29 5 22% 28 76.1 0.0
30 12:35 S 11 16.09 Fair CLR 29 6 23% 28 76.1 0.0
30 12:15 S 9 16.09 Fair CLR 29 5 22% 28 76.12 0.0
30 11:35 S 7 16.09 Fair CLR 29 6 23% 28 76.12 0.0
30 11:15 S 7 16.09 Fair CLR 28 5 23% 27 76.12 0.0
30 10:55 S 6 16.09 Fair CLR 28 6 25% 27 76.12 0.0
30 10:35 S 7 16.09 Fair CLR 28 6 25% 27 76.12 0.0
30 10:15 Calm 16.09 Fair CLR 27 6 26% 26 76.1 0.0
30 09:55 Calm 16.09 Fair CLR 26 6 28% 26 76.1 0.0
30 08:55 Calm 16.09 Fair CLR 24 7 34% 25 76.1 0.0
30 08:35 Calm 16.09 Fair CLR 21 8 43% 76.12 0.0
30 08:15 Calm 16.09 Fair CLR 20 8 46% 76.12 0.0
30 07:35 Calm 16.09 Fair CLR 16 7 55% 76.12 0.0
30 07:15 Calm 16.09 Fair CLR 14 7 63% 76.1 0.0
30 06:15 Calm 16.09 Mostly Cloudy BKN047 14 7 63% 76.07 0.0
30 04:55 Calm 16.09 Overcast OVC042 13 7 67% 76.07 0.0
30 04:35 Calm 16.09 Mostly Cloudy BKN042 13 7 67% 76.07 0.0
30 04:15 Calm 16.09 Fair CLR 13 7 67% 76.07 0.0
30 03:55 Calm 16.09 Fair CLR 14 7 63% 76.07 0.0
30 03:35 NE 6 16.09 Fair CLR 15 7 59% 76.07 0.0
30 03:15 Calm 16.09 Fair CLR 13 6 63% 76.07 0.0
30 02:55 Calm 16.09 Fair CLR 14 6 59% 76.07 0.0
30 02:35 Calm 16.09 Fair CLR 14 6 59% 76.07 0.0
30 02:15 Calm 16.09 Fair CLR 14 6 59% 76.1 0.0
30 01:55 Calm 16.09 Fair CLR 14 6 59% 76.1 0.0
30 01:35 Calm 16.09 Fair CLR 14 6 59% 76.1 0.0
30 01:15 Calm 16.09 Fair CLR 14 6 59% 76.12 0.0
30 00:55 Calm 16.09 Fair CLR 14 6 59% 76.12 0.0
30 00:35 Calm 16.09 Fair CLR 14 6 59% 76.12 0.0
30 00:15 Calm 16.09 Fair CLR 14 6 59% 76.1 0.0
29 23:35 Calm 16.09 Fair CLR 15 5 51% 76.12 0.0
29 22:55 Calm 16.09 Fair CLR 16 5 48% 76.12 0.0
29 22:35 Calm 16.09 Fair CLR 17 5 45% 76.12 0.0
29 21:55 Calm 16.09 Fair CLR 17 6 49% 76.12 0.0
29 21:35 Calm 16.09 Fair CLR 18 6 46% 76.12 0.0
Date Time (pdt) Wind (kph) Vis. (km) Weather Sky Cond. Air Dwpt Max. Min. Relative Humidity Wind Chill (°C) Heat Index (°C) altimeter (cm) sea level (mb) 1 hr 3 hr 6 hr
6 hour
Temperature (ºC) Pressure Precipitation (cm)